Time;durP1;ratioP1;P1;durP2;ratioP2;P2;SDS_P1;SDS_P2;PMS_P1;PMS_P2;Temp;Humidity;BMP_temperature;BMP_pressure;BME280_temperature;BME280_humidity;BME280_pressure;Samples;Min_cycle;Max_cycle;Signal;HPM_P1;HPM_P2
2022/12/17 13:06:41;;;;;;;;;49.67;39.33;;;;;6.58;74.08;99651.94;4973467;28;45422;-66
2022/12/17 13:09:16;;;;;;;;;51.33;41.00;;;;;6.59;73.74;99650.16;4993618;28;45514;-68
2022/12/17 13:11:43;;;;;;;;;52.00;42.33;;;;;6.61;74.10;99654.50;4983933;28;45437;-66
2022/12/17 13:14:14;;;;;;;;;50.00;38.33;;;;;6.65;73.98;99644.84;4976766;28;45551;-66
2022/12/17 13:16:46;;;;;;;;;52.67;41.33;;;;;6.67;74.07;99648.31;4988763;28;45483;-68
2022/12/17 13:19:19;;;;;;;;;49.00;38.00;;;;;6.64;73.83;99646.59;4977006;28;45470;-66
2022/12/17 13:21:45;;;;;;;;;10.00;7.00;;;;;6.61;73.75;99645.78;4977417;28;45283;-67
2022/12/17 13:24:21;;;;;;;;;39.33;36.00;;;;;6.59;73.60;99640.56;4988053;28;45416;-66
2022/12/17 13:26:47;;;;;;;;;54.67;42.00;;;;;6.57;73.88;99642.34;4976136;28;45347;-67
2022/12/17 13:29:25;;;;;;;;;49.33;41.33;;;;;6.57;73.51;99663.28;4977195;28;45419;-66
2022/12/17 13:32:00;;;;;;;;;49.33;41.00;;;;;6.54;73.97;99659.84;4978666;28;45574;-66
2022/12/17 13:35:02;;;;;;;;;53.00;42.00;;;;;6.54;73.88;99659.84;4989318;28;45627;-66
2022/12/17 13:37:39;;;;;;;;;53.33;42.67;;;;;6.51;73.62;99659.91;4985020;28;45485;-66
2022/12/17 13:40:26;;;;;;;;;48.33;39.33;;;;;6.51;73.75;99662.53;4976877;28;45571;-66
2022/12/17 13:42:51;;;;;;;;;48.33;36.67;;;;;6.52;73.70;99664.28;4976008;28;45512;-68
2022/12/17 13:45:21;;;;;;;;;50.00;41.33;;;;;6.52;73.39;99667.75;4978080;28;45535;-66
2022/12/17 13:47:58;;;;;;;;;53.00;42.00;;;;;6.53;73.07;99666.00;4976219;28;45398;-67
2022/12/17 13:50:26;;;;;;;;;44.33;37.67;;;;;6.52;73.17;99680.00;4985534;28;45595;-66
2022/12/17 13:52:52;;;;;;;;;44.33;38.67;;;;;6.47;73.15;99672.19;4977766;28;45583;-68
2022/12/17 13:55:26;;;;;;;;;43.67;38.00;;;;;6.45;72.86;99687.06;4975509;28;47072;-68
2022/12/17 13:57:52;;;;;;;;;46.67;40.33;;;;;6.46;73.31;99680.06;4992447;28;45746;-66
2022/12/17 14:00:29;;;;;;;;;48.00;38.00;;;;;6.47;73.18;99692.28;4993911;28;45457;-67
2022/12/17 14:02:55;;;;;;;;;54.33;39.67;;;;;6.47;72.49;99700.13;4976492;28;45446;-67
2022/12/17 14:05:41;;;;;;;;;44.33;37.67;;;;;6.44;72.36;99701.03;4999596;28;46052;-66
2022/12/17 14:08:07;;;;;;;;;40.00;37.00;;;;;6.39;72.33;99702.84;4985141;28;45437;-67
2022/12/17 14:10:33;;;;;;;;;39.33;35.00;;;;;6.36;72.06;99702.91;4993794;28;45532;-67
2022/12/17 14:13:05;;;;;;;;;37.67;34.33;;;;;6.32;72.26;99710.81;4995224;28;45493;-67
2022/12/17 14:15:31;;;;;;;;;41.00;35.67;;;;;6.30;71.97;99710.84;4986148;28;47307;-66
2022/12/17 14:17:58;;;;;;;;;37.67;35.33;;;;;6.30;72.06;99716.06;4983801;28;45383;-66
2022/12/17 14:20:31;;;;;;;;;44.33;33.00;;;;;6.32;71.99;99721.28;4975605;28;45467;-66
2022/12/17 14:23:06;;;;;;;;;40.33;34.67;;;;;6.29;72.06;99714.34;4975275;28;45370;-68
2022/12/17 14:25:39;;;;;;;;;42.67;34.67;;;;;6.26;71.72;99723.09;4974702;28;45363;-68
2022/12/17 14:28:33;;;;;;;;;44.00;37.67;;;;;6.24;71.64;99721.38;4975179;28;45413;-67
2022/12/17 14:31:18;;;;;;;;;40.00;36.33;;;;;6.21;71.09;99717.03;4979952;28;45455;-67
2022/12/17 14:33:44;;;;;;;;;38.00;35.33;;;;;6.23;71.48;99720.50;4999496;28;45557;-67
2022/12/17 14:36:20;;;;;;;;;44.33;34.33;;;;;6.26;71.59;99724.84;4995153;28;45406;-67
2022/12/17 14:38:53;;;;;;;;;37.33;33.67;;;;;6.30;71.85;99724.78;4994948;28;45370;-67
2022/12/17 14:44:04;;;;;;;;;43.00;38.00;;;;;6.39;71.63;99733.41;4994931;28;45505;-68
2022/12/17 14:46:31;;;;;;;;;48.33;38.00;;;;;6.43;71.42;99732.47;4992115;28;46340;-67
2022/12/17 14:48:59;;;;;;;;;41.00;37.67;;;;;6.44;71.22;99736.84;4990365;28;45378;-67
2022/12/17 14:51:40;;;;;;;;;46.00;37.67;;;;;6.44;71.36;99739.44;4975170;28;45419;-67
2022/12/17 14:54:20;;;;;;;;;45.67;34.00;;;;;6.46;71.43;99740.31;4973480;28;45533;-67
2022/12/17 14:56:48;;;;;;;;;46.67;36.67;;;;;6.44;70.90;99737.69;4982150;28;48484;-67
2022/12/17 14:59:33;;;;;;;;;46.67;36.67;;;;;6.43;71.14;99742.97;4994805;28;45388;-67
2022/12/17 15:02:07;;;;;;;;;36.67;31.67;;;;;6.41;71.21;99749.97;4983598;28;45405;-67
2022/12/17 15:04:35;;;;;;;;;47.00;38.33;;;;;6.38;71.26;99755.22;4998075;28;45565;-67
2022/12/17 15:07:00;;;;;;;;;37.33;34.00;;;;;6.34;70.94;99756.19;5000636;28;46541;-67
2022/12/17 15:09:26;;;;;;;;;46.00;37.00;;;;;6.29;71.00;99751.00;4985925;28;45473;-67
2022/12/17 15:11:52;;;;;;;;;43.00;38.00;;;;;6.23;71.19;99757.16;4974656;28;45430;-67
2022/12/17 15:14:18;;;;;;;;;45.00;36.00;;;;;6.21;71.32;99755.44;4976941;28;45418;-67
2022/12/17 15:16:43;;;;;;;;;32.33;31.33;;;;;6.17;71.13;99759.88;4988722;28;45408;-66
2022/12/17 15:19:09;;;;;;;;;44.67;38.00;;;;;6.14;71.15;99762.53;4975035;28;45676;-67
2022/12/17 15:21:34;;;;;;;;;41.67;33.33;;;;;6.09;70.89;99756.47;4975042;28;45512;-67
2022/12/17 15:24:00;;;;;;;;;48.00;36.67;;;;;6.07;70.89;99755.63;4974410;28;45429;-66
2022/12/17 15:26:25;;;;;;;;;29.00;28.33;;;;;6.06;70.85;99758.25;4974745;28;46307;-67
2022/12/17 15:28:50;;;;;;;;;38.67;35.33;;;;;6.04;70.78;99758.25;4980577;28;45443;-67
2022/12/17 15:31:16;;;;;;;;;40.67;35.67;;;;;6.02;70.62;99757.44;4981764;28;45437;-66
2022/12/17 15:33:42;;;;;;;;;37.33;30.67;;;;;5.99;70.37;99756.59;4992284;28;45467;-66
2022/12/17 15:36:09;;;;;;;;;45.33;35.67;;;;;5.96;70.51;99760.13;4976604;28;48406;-68
2022/12/17 15:38:35;;;;;;;;;31.33;28.33;;;;;5.91;70.72;99759.28;4973594;28;45456;-67
2022/12/17 15:43:09;;;;;;;;;42.00;37.67;;;;;5.87;70.51;99768.03;4974373;28;45340;-67
2022/12/17 15:43:52;;;;;;;;;39.33;34.00;;;;;5.79;70.71;99769.88;4983679;28;45393;-66
2022/12/17 15:46:18;;;;;;;;;42.00;33.67;;;;;5.72;70.90;99758.59;4977843;28;46135;-68
2022/12/17 15:48:43;;;;;;;;;36.00;31.33;;;;;5.66;71.23;99763.91;4974235;28;45460;-67
2022/12/17 15:51:09;;;;;;;;;42.00;34.67;;;;;5.62;71.45;99762.19;4973049;28;45443;-67
2022/12/17 15:53:34;;;;;;;;;35.67;34.00;;;;;5.58;71.49;99768.31;4973967;28;45347;-68
2022/12/17 15:56:02;;;;;;;;;36.00;33.33;;;;;5.51;71.69;99764.94;4974375;28;46256;-67
2022/12/17 15:58:28;;;;;;;;;46.33;35.67;;;;;5.49;71.85;99764.06;4982756;28;45937;-67
2022/12/17 16:00:54;;;;;;;;;46.00;37.33;;;;;5.46;71.90;99766.72;4987292;28;45334;-68
2022/12/17 16:03:19;;;;;;;;;46.67;39.00;;;;;5.47;71.87;99767.56;4974115;28;45538;-67
2022/12/17 16:05:45;;;;;;;;;47.67;37.00;;;;;5.43;72.09;99766.72;4998344;28;46382;-68
2022/12/17 16:08:11;;;;;;;;;50.67;39.67;;;;;5.40;72.30;99758.03;4983198;28;45500;-68
2022/12/17 16:10:37;;;;;;;;;34.33;32.33;;;;;5.36;72.47;99758.97;4976107;28;45570;-67
2022/12/17 16:13:04;;;;;;;;;40.00;35.00;;;;;5.32;72.40;99760.75;4974295;28;45343;-68
2022/12/17 16:15:30;;;;;;;;;50.33;40.33;;;;;5.28;72.57;99756.41;4983572;28;46769;-67
2022/12/17 16:17:57;;;;;;;;;47.00;38.33;;;;;5.23;72.67;99755.56;4988017;28;45568;-68
2022/12/17 16:20:22;;;;;;;;;44.00;38.00;;;;;5.19;72.69;99757.38;4986239;28;45398;-68
2022/12/17 16:22:48;;;;;;;;;41.67;36.00;;;;;5.17;73.06;99753.03;4981441;28;45572;-68
2022/12/17 16:25:14;;;;;;;;;47.00;37.33;;;;;5.14;73.35;99753.06;4979884;28;45326;-67
2022/12/17 16:27:40;;;;;;;;;40.00;35.00;;;;;5.11;73.44;99748.72;4983920;28;45544;-67
2022/12/17 16:30:06;;;;;;;;;47.67;37.33;;;;;5.10;73.65;99754.81;4981704;28;45505;-68
2022/12/17 16:32:32;;;;;;;;;50.00;41.00;;;;;5.08;74.15;99759.19;4988274;28;45420;-67
2022/12/17 16:34:58;;;;;;;;;55.00;41.00;;;;;5.06;73.95;99749.63;4995517;28;46538;-67
2022/12/17 16:37:23;;;;;;;;;52.00;43.67;;;;;5.04;74.22;99757.47;4993494;28;45523;-67
2022/12/17 16:39:49;;;;;;;;;57.00;42.33;;;;;5.02;74.36;99756.63;4993089;28;45921;-67
2022/12/17 16:42:15;;;;;;;;;57.00;43.00;;;;;5.01;74.46;99765.34;4994808;28;45516;-67
2022/12/17 16:44:40;;;;;;;;;58.67;43.33;;;;;4.97;74.15;99766.25;4993391;28;45728;-67
2022/12/17 16:47:05;;;;;;;;;50.67;42.67;;;;;4.95;74.33;99773.22;4977569;28;45424;-67
2022/12/17 16:49:32;;;;;;;;;49.00;41.33;;;;;4.93;74.48;99768.88;4977262;28;45404;-67
2022/12/17 16:51:58;;;;;;;;;49.33;33.67;;;;;4.91;74.37;99771.50;4977138;28;45359;-68
2022/12/17 16:54:25;;;;;;;;;47.33;38.33;;;;;4.88;74.42;99768.91;4975306;28;46284;-67
2022/12/17 16:56:52;;;;;;;;;54.33;44.33;;;;;4.85;74.51;99780.28;4975822;28;45442;-67
2022/12/17 16:59:18;;;;;;;;;44.33;37.33;;;;;4.84;74.70;99772.44;4993407;28;45585;-67
2022/12/17 17:01:46;;;;;;;;;51.33;39.67;;;;;4.81;74.74;99778.53;4996535;28;45428;-67
2022/12/17 17:04:13;;;;;;;;;43.67;39.67;;;;;4.79;75.03;99780.28;4997354;28;47442;-67
2022/12/17 17:06:41;;;;;;;;;49.33;41.00;;;;;4.77;74.98;99778.56;5005314;28;45361;-69
2022/12/17 17:09:07;;;;;;;;;45.33;39.00;;;;;4.73;74.92;99782.06;4991614;28;45404;-67
2022/12/17 17:11:33;;;;;;;;;53.00;40.33;;;;;4.71;74.96;99789.91;4976615;28;45586;-67
2022/12/17 17:13:59;;;;;;;;;56.67;44.33;;;;;4.71;75.02;99792.50;4989612;28;46985;-67
2022/12/17 17:16:24;;;;;;;;;42.67;38.00;;;;;4.69;74.75;99794.25;4985413;28;45465;-67
2022/12/17 17:18:50;;;;;;;;;51.67;40.67;;;;;4.66;74.68;99796.91;4987469;28;45589;-67
2022/12/17 17:21:19;;;;;;;;;48.67;42.00;;;;;4.63;74.95;99796.06;4976505;28;45494;-67
2022/12/17 17:23:55;;;;;;;;;49.33;40.33;;;;;4.62;74.78;99796.94;4991594;28;47994;-77
2022/12/17 17:26:20;;;;;;;;;46.67;37.00;;;;;4.55;74.58;99803.91;4978351;28;45515;-77
2022/12/17 17:28:46;;;;;;;;;44.67;40.00;;;;;4.47;74.65;99800.50;4991794;28;45381;-78
2022/12/17 17:31:13;;;;;;;;;46.00;38.67;;;;;4.39;74.75;99803.13;4993670;28;45429;-78
2022/12/17 17:33:43;;;;;;;;;41.33;37.33;;;;;4.34;75.27;99811.88;4991714;28;48117;-79
2022/12/17 17:36:11;;;;;;;;;51.00;41.00;;;;;4.29;74.98;99817.09;4976007;28;45325;-78
2022/12/17 17:38:38;;;;;;;;;55.67;43.33;;;;;4.25;75.43;99815.38;4976338;28;45500;-78
2022/12/17 17:41:05;;;;;;;;;52.33;40.33;;;;;4.24;75.72;99813.63;4976312;28;45445;-78
2022/12/17 17:43:31;;;;;;;;;44.33;38.00;;;;;4.20;75.71;99812.75;4986647;28;46981;-78
2022/12/17 17:46:07;;;;;;;;;43.67;37.67;;;;;4.18;75.60;99817.16;4982322;28;45467;-77
2022/12/17 17:48:33;;;;;;;;;13.33;7.33;;;;;4.15;76.04;99827.59;4977587;28;45549;-77
2022/12/17 17:51:02;;;;;;;;;46.33;38.00;;;;;4.14;76.20;99822.38;4965168;28;45689;-77
2022/12/17 17:53:28;;;;;;;;;52.00;43.33;;;;;4.09;76.28;99824.13;4993443;28;46463;-78
2022/12/17 17:55:53;;;;;;;;;53.33;40.67;;;;;4.07;76.41;99829.34;4979535;28;45533;-79
2022/12/17 17:58:20;;;;;;;;;51.00;42.00;;;;;4.06;76.54;99834.56;5000196;28;45406;-78
2022/12/17 18:00:46;;;;;;;;;55.00;43.67;;;;;4.04;76.48;99842.38;4976687;28;45638;-78
2022/12/17 18:03:11;;;;;;;;;48.67;40.67;;;;;4.04;76.46;99846.72;4985554;28;46594;-76
2022/12/17 18:05:37;;;;;;;;;50.67;39.33;;;;;4.04;76.59;99837.16;4975678;28;45352;-76
2022/12/17 18:08:03;;;;;;;;;57.00;44.67;;;;;4.03;76.78;99838.03;4983913;28;45572;-76
2022/12/17 18:10:29;;;;;;;;;50.33;43.33;;;;;4.02;76.66;99838.06;4995064;28;45579;-77
2022/12/17 18:15:39;;;;;;;;;59.00;47.33;;;;;3.98;76.72;99844.16;4994453;28;45464;-77
2022/12/17 18:18:04;;;;;;;;;54.67;44.67;;;;;3.97;77.08;99850.25;4982998;28;45428;-77
2022/12/17 18:20:30;;;;;;;;;57.67;47.00;;;;;3.96;77.29;99843.28;4979845;28;45440;-79
2022/12/17 18:22:56;;;;;;;;;57.00;47.00;;;;;3.94;77.25;99852.84;4995275;28;45445;-79
2022/12/17 18:25:22;;;;;;;;;65.00;50.50;;;;;3.92;77.69;99855.47;4977645;28;45472;-78
2022/12/17 18:27:51;;;;;;;;;52.67;42.67;;;;;3.92;77.74;99858.06;4984907;28;46092;-75
2022/12/17 18:30:16;;;;;;;;;59.33;45.33;;;;;3.92;77.67;99857.19;4993469;28;45391;-75
2022/12/17 18:32:42;;;;;;;;;58.67;46.33;;;;;3.91;77.83;99852.84;4999644;28;46448;-75
2022/12/17 18:35:08;;;;;;;;;55.67;44.00;;;;;3.90;77.60;99854.59;4996380;28;45478;-75
2022/12/17 18:37:33;;;;;;;;;54.00;41.67;;;;;3.92;77.81;99857.19;4994960;28;45407;-74
2022/12/17 18:39:59;;;;;;;;;50.33;40.00;;;;;3.91;77.59;99860.69;4963095;28;45438;-75
2022/12/17 18:45:08;;;;;;;;;61.67;49.67;;;;;3.92;78.02;99876.31;4982806;28;45327;-75
2022/12/17 18:47:33;;;;;;;;;61.33;48.67;;;;;3.92;78.16;99865.91;4993144;28;45399;-75
2022/12/17 18:49:59;;;;;;;;;63.67;50.33;;;;;3.94;78.30;99879.81;5009376;28;45520;-74
2022/12/17 18:52:24;;;;;;;;;61.00;48.67;;;;;3.94;78.33;99885.03;4994587;28;46259;-75
2022/12/17 18:54:51;;;;;;;;;57.67;45.67;;;;;3.94;78.36;99886.75;4993389;28;45362;-74
2022/12/17 18:57:16;;;;;;;;;56.00;45.67;;;;;3.94;78.56;99889.38;4994521;28;45468;-75
2022/12/17 18:59:42;;;;;;;;;66.67;50.00;;;;;3.93;78.66;99890.25;4993333;28;45409;-74
2022/12/17 19:02:11;;;;;;;;;49.33;41.33;;;;;3.90;78.35;99891.09;4980680;28;45429;-74
2022/12/17 19:04:37;;;;;;;;;59.00;47.33;;;;;3.88;78.53;99895.44;4983693;28;45388;-75
2022/12/17 19:07:02;;;;;;;;;53.33;45.00;;;;;3.86;78.81;99899.78;4985295;28;45447;-75
2022/12/17 19:09:33;;;;;;;;;63.33;48.00;;;;;3.83;78.55;99895.47;4985341;28;45512;-75
2022/12/17 19:11:58;;;;;;;;;63.00;50.33;;;;;3.82;78.94;99905.91;4974164;28;45605;-75
2022/12/17 19:14:24;;;;;;;;;68.00;52.50;;;;;3.79;78.83;99909.38;4976660;28;45480;-74
2022/12/17 19:16:53;;;;;;;;;58.33;48.00;;;;;3.78;78.97;99922.41;4978255;28;45353;-75
2022/12/17 19:19:18;;;;;;;;;59.67;49.67;;;;;3.75;78.58;99907.63;4990003;28;45346;-75
2022/12/17 19:21:45;;;;;;;;;69.67;53.67;;;;;3.74;79.44;99912.84;4986239;28;46813;-75
2022/12/17 19:24:12;;;;;;;;;63.00;51.67;;;;;3.70;79.29;99909.38;4983257;28;45572;-74
2022/12/17 19:26:39;;;;;;;;;62.00;52.00;;;;;3.68;78.91;99912.88;4978647;28;45517;-74
2022/12/17 19:29:04;;;;;;;;;62.33;45.67;;;;;3.65;79.51;99915.47;4993538;28;45826;-74
2022/12/17 19:31:31;;;;;;;;;59.33;47.33;;;;;3.63;79.67;99925.03;4993222;28;46291;-74
2022/12/17 19:33:58;;;;;;;;;64.00;48.33;;;;;3.62;79.58;99931.09;4989293;28;45378;-74
2022/12/17 19:36:25;;;;;;;;;58.00;47.00;;;;;3.61;79.58;99926.75;4988215;28;45588;-75
2022/12/17 19:38:53;;;;;;;;;60.33;45.67;;;;;3.60;80.01;99930.22;4984459;28;45587;-74
2022/12/17 19:41:19;;;;;;;;;60.67;50.33;;;;;3.57;80.14;99931.09;4984890;28;45516;-75
2022/12/17 19:43:46;;;;;;;;;70.33;53.67;;;;;3.57;80.38;99936.31;4985857;28;45483;-74
2022/12/17 19:46:16;;;;;;;;;67.67;50.67;;;;;3.57;80.13;99941.53;4986816;28;45478;-75
2022/12/17 19:48:44;;;;;;;;;71.33;52.00;;;;;3.56;80.47;99949.34;4981901;28;45477;-74
2022/12/17 19:51:11;;;;;;;;;68.67;53.33;;;;;3.56;80.35;99945.00;4980366;28;45632;-75
2022/12/17 19:53:41;;;;;;;;;70.00;56.33;;;;;3.55;80.48;99947.59;4989548;28;45399;-74
2022/12/17 19:56:14;;;;;;;;;66.33;52.33;;;;;3.54;80.29;99951.94;4995047;28;45508;-75
2022/12/17 19:58:40;;;;;;;;;67.67;52.67;;;;;3.53;80.37;99952.81;4985535;28;45411;-74
2022/12/17 20:01:09;;;;;;;;;57.67;44.33;;;;;3.52;80.66;99952.84;4984739;28;45885;-74
2022/12/17 20:03:36;;;;;;;;;70.67;52.67;;;;;3.48;80.91;99947.59;4981789;28;45418;-75
2022/12/17 20:06:03;;;;;;;;;69.33;53.67;;;;;3.46;80.84;99943.25;4987727;28;45393;-74
2022/12/17 20:08:29;;;;;;;;;76.00;58.75;;;;;3.46;81.05;99951.94;4984465;28;45639;-74
2022/12/17 20:10:55;;;;;;;;;74.75;59.00;;;;;3.44;81.38;99947.59;4984661;28;46411;-75
2022/12/17 20:13:21;;;;;;;;;71.00;54.75;;;;;3.42;81.33;99952.78;4976786;28;45484;-74
2022/12/17 20:15:46;;;;;;;;;75.75;58.75;;;;;3.41;81.29;99947.56;4984719;28;45634;-74
2022/12/17 20:18:11;;;;;;;;;78.00;61.00;;;;;3.40;81.75;99961.47;4993533;28;45536;-74
2022/12/17 20:20:37;;;;;;;;;76.25;59.75;;;;;3.40;81.99;99969.28;4989315;28;48187;-74
2022/12/17 20:23:02;;;;;;;;;77.25;56.75;;;;;3.39;82.04;99978.84;4989160;28;45554;-75
2022/12/17 20:25:28;;;;;;;;;80.75;65.00;;;;;3.38;82.06;99982.31;4992697;28;45480;-74
2022/12/17 20:27:54;;;;;;;;;70.25;56.00;;;;;3.40;82.02;99984.94;4986379;28;45611;-74
2022/12/17 20:30:20;;;;;;;;;75.50;58.00;;;;;3.40;81.88;99990.13;4985751;28;46101;-74
2022/12/17 20:32:45;;;;;;;;;76.50;59.00;;;;;3.39;81.87;99994.47;4985954;28;45367;-75
2022/12/17 20:35:11;;;;;;;;;74.75;58.50;;;;;3.40;81.69;99997.97;4992859;28;45560;-75
2022/12/17 20:37:38;;;;;;;;;81.75;58.25;;;;;3.39;81.90;100002.31;4984083;28;45382;-74
2022/12/17 20:40:05;;;;;;;;;75.50;58.75;;;;;3.38;82.29;99999.69;4991026;28;46219;-74
2022/12/17 20:42:30;;;;;;;;;74.75;58.00;;;;;3.39;82.29;100006.66;4989772;28;45491;-75
2022/12/17 20:44:56;;;;;;;;;81.75;64.25;;;;;3.38;81.95;100004.91;4984488;28;45735;-75
2022/12/17 20:47:21;;;;;;;;;83.75;63.00;;;;;3.38;82.24;100010.97;4987495;28;45834;-74
2022/12/17 20:49:47;;;;;;;;;71.25;56.00;;;;;3.39;82.06;100014.47;4988714;28;46023;-75
2022/12/17 20:52:12;;;;;;;;;65.00;48.00;;;;;3.39;82.23;100023.16;4988384;28;45326;-74
2022/12/17 20:54:38;;;;;;;;;74.00;55.33;;;;;3.41;82.06;100020.56;4984039;28;45387;-74
2022/12/17 20:57:03;;;;;;;;;70.00;56.33;;;;;3.42;82.17;100022.28;4970360;28;45354;-74
2022/12/17 20:59:29;;;;;;;;;68.00;54.33;;;;;3.44;82.30;100025.78;4985360;28;46292;-74
2022/12/17 21:01:54;;;;;;;;;64.33;50.67;;;;;3.44;82.30;100034.47;4981539;28;45370;-75
2022/12/17 21:04:20;;;;;;;;;65.67;53.00;;;;;3.46;82.13;100026.66;4983603;28;45632;-74
2022/12/17 21:06:46;;;;;;;;;73.75;56.50;;;;;3.46;82.30;100029.25;4990264;28;45335;-74
2022/12/17 21:09:13;;;;;;;;;70.25;55.25;;;;;3.46;82.43;100024.06;4985370;28;47009;-74
2022/12/17 21:11:40;;;;;;;;;71.67;57.67;;;;;3.47;82.31;100023.19;4987593;28;45346;-74
2022/12/17 21:14:09;;;;;;;;;72.75;58.25;;;;;3.46;82.55;100021.44;4987736;28;45525;-74
2022/12/17 21:16:36;;;;;;;;;75.00;58.50;;;;;3.44;82.13;100026.66;4981133;28;45659;-74
2022/12/17 21:19:04;;;;;;;;;77.50;58.75;;;;;3.44;82.41;100042.28;4981451;28;46236;-74
2022/12/17 21:21:35;;;;;;;;;75.50;56.00;;;;;3.42;82.45;100046.63;4990404;28;45355;-74
2022/12/17 21:24:01;;;;;;;;;74.00;57.00;;;;;3.40;82.33;100050.09;4984807;28;45513;-75
2022/12/17 21:26:32;;;;;;;;;72.25;55.00;;;;;3.37;82.30;100037.03;4990999;28;45699;-74
2022/12/17 21:28:59;;;;;;;;;72.00;58.00;;;;;3.34;82.53;100040.53;4998869;28;46573;-75
2022/12/17 21:31:29;;;;;;;;;80.00;59.25;;;;;3.32;82.48;100047.47;4988049;28;45628;-75
2022/12/17 21:33:57;;;;;;;;;73.00;58.75;;;;;3.28;82.07;100050.03;4985000;28;45448;-74
2022/12/17 21:36:24;;;;;;;;;67.00;52.67;;;;;3.25;82.11;100060.44;4987454;28;45581;-74
2022/12/17 21:38:51;;;;;;;;;67.00;54.67;;;;;3.23;82.22;100059.56;4980978;28;45553;-74
2022/12/17 21:41:23;;;;;;;;;70.33;55.67;;;;;3.21;82.24;100072.59;4979785;28;45448;-75
2022/12/17 21:43:53;;;;;;;;;72.00;52.67;;;;;3.17;82.21;100080.41;4981453;28;45402;-75
2022/12/17 21:46:19;;;;;;;;;69.33;53.33;;;;;3.14;82.09;100074.31;4982252;28;45471;-74
2022/12/17 21:48:44;;;;;;;;;62.33;51.67;;;;;3.10;82.25;100071.69;4994494;28;46424;-74
2022/12/17 21:51:11;;;;;;;;;63.33;43.67;;;;;3.07;82.34;100074.25;4995559;28;45295;-74
2022/12/17 21:53:41;;;;;;;;;66.33;51.33;;;;;3.03;82.26;100082.91;4994726;28;45458;-75
2022/12/17 21:56:13;;;;;;;;;59.00;49.33;;;;;2.98;82.23;100088.13;4993941;28;45310;-74
2022/12/17 21:58:40;;;;;;;;;70.33;53.00;;;;;2.95;82.47;100093.31;4989525;28;45429;-74
2022/12/17 22:01:09;;;;;;;;;64.67;51.33;;;;;2.92;82.52;100085.47;4992311;28;45398;-75
2022/12/17 22:03:35;;;;;;;;;66.33;50.67;;;;;2.88;82.53;100086.31;4990235;28;45402;-74
2022/12/17 22:06:27;;;;;;;;;68.00;51.33;;;;;2.86;82.64;100097.56;4987884;28;45323;-76
2022/12/17 22:08:53;;;;;;;;;68.00;52.67;;;;;2.83;82.82;100101.03;4987735;28;45576;-74
2022/12/17 22:11:22;;;;;;;;;61.67;47.33;;;;;2.80;82.82;100103.63;4991378;28;45359;-74
2022/12/17 22:14:09;;;;;;;;;72.00;55.33;;;;;2.77;82.96;100109.69;4985151;28;45501;-74
2022/12/17 22:16:41;;;;;;;;;52.00;42.00;;;;;2.75;83.00;100113.13;4988280;28;45565;-75
2022/12/17 22:19:09;;;;;;;;;65.00;51.67;;;;;2.71;82.90;100101.81;4984973;28;46526;-74
2022/12/17 22:21:37;;;;;;;;;65.00;52.00;;;;;2.68;83.13;100107.00;4990367;28;45533;-75
2022/12/17 22:24:04;;;;;;;;;72.33;54.00;;;;;2.64;83.35;100107.84;4984927;28;45439;-76
2022/12/17 22:26:30;;;;;;;;;65.00;50.00;;;;;2.61;83.36;100112.16;4992550;28;45287;-75
2022/12/17 22:28:55;;;;;;;;;64.33;50.33;;;;;2.58;83.57;100118.19;4986069;28;46400;-76
2022/12/17 22:34:09;;;;;;;;;70.00;51.33;;;;;2.53;83.76;100126.81;4991842;28;45536;-76
2022/12/17 22:36:35;;;;;;;;;66.33;50.67;;;;;2.51;83.74;100121.63;4986843;28;45585;-77
2022/12/17 22:39:03;;;;;;;;;59.00;48.67;;;;;2.50;83.57;100113.81;4982763;28;46436;-76
2022/12/17 22:44:13;;;;;;;;;60.67;47.67;;;;;2.44;83.84;100123.31;4989707;28;45454;-76
2022/12/17 22:46:39;;;;;;;;;53.00;41.67;;;;;2.41;83.89;100125.88;4989593;28;45541;-76
2022/12/17 22:49:04;;;;;;;;;58.00;48.00;;;;;2.39;84.04;100124.97;4987643;28;46757;-76
2022/12/17 22:51:29;;;;;;;;;62.67;47.00;;;;;2.41;84.13;100127.59;4993281;28;45548;-76
2022/12/17 22:53:55;;;;;;;;;65.33;48.67;;;;;2.39;84.31;100121.50;4979585;28;45426;-76
2022/12/17 22:56:20;;;;;;;;;57.00;46.00;;;;;2.39;84.08;100127.59;4989496;28;45382;-77
2022/12/17 22:58:46;;;;;;;;;63.33;49.00;;;;;2.39;84.15;100126.72;4986053;28;46733;-77
2022/12/17 23:01:12;;;;;;;;;57.33;45.67;;;;;2.38;84.29;100128.44;4987972;28;45445;-76
2022/12/17 23:03:38;;;;;;;;;64.33;48.33;;;;;2.38;84.59;100132.78;4996394;28;45504;-76
2022/12/17 23:06:09;;;;;;;;;62.67;48.67;;;;;2.39;84.36;100131.91;4986461;28;45519;-76
2022/12/17 23:08:35;;;;;;;;;65.33;49.67;;;;;2.38;84.64;100137.97;4983193;28;46183;-76
2022/12/17 23:11:11;;;;;;;;;64.00;49.00;;;;;2.39;84.47;100147.53;4976219;28;45335;-76
2022/12/17 23:13:37;;;;;;;;;16.33;6.67;;;;;2.40;84.17;100147.53;4987642;28;45520;-76
2022/12/17 23:16:04;;;;;;;;;64.33;49.67;;;;;2.40;84.84;100146.66;4983446;28;45505;-76
2022/12/17 23:18:29;;;;;;;;;60.67;50.33;;;;;2.40;84.82;100152.75;4988316;28;45631;-76
2022/12/17 23:20:55;;;;;;;;;64.33;52.00;;;;;2.39;84.81;100145.78;4988155;28;45472;-74
2022/12/17 23:23:21;;;;;;;;;65.33;52.00;;;;;2.39;84.82;100150.13;4984166;28;45438;-76
2022/12/17 23:25:46;;;;;;;;;71.00;55.00;;;;;2.36;84.86;100150.97;5009953;28;45568;-77
2022/12/17 23:28:12;;;;;;;;;65.33;50.67;;;;;2.36;85.00;100156.16;4993703;28;46296;-76
2022/12/17 23:30:37;;;;;;;;;66.00;54.00;;;;;2.38;85.00;100161.41;4987579;28;45510;-76
2022/12/17 23:33:03;;;;;;;;;66.00;50.33;;;;;2.36;84.93;100163.09;4986990;28;45430;-76
2022/12/17 23:35:28;;;;;;;;;77.50;56.75;;;;;2.36;85.18;100170.91;4991813;28;45346;-76
2022/12/17 23:37:53;;;;;;;;;67.67;52.33;;;;;2.36;84.76;100170.91;4978795;28;47017;-76
2022/12/17 23:40:20;;;;;;;;;64.00;47.67;;;;;2.34;84.87;100176.13;4992942;28;45631;-76
2022/12/17 23:42:45;;;;;;;;;66.33;48.33;;;;;2.33;84.56;100182.19;4983078;28;45394;-76
2022/12/17 23:45:11;;;;;;;;;61.00;50.67;;;;;2.33;84.55;100183.91;4990407;28;45659;-76
2022/12/17 23:47:37;;;;;;;;;57.00;47.00;;;;;2.32;84.51;100177.84;4984775;28;45456;-77
2022/12/17 23:50:04;;;;;;;;;58.67;46.67;;;;;2.33;84.55;100186.53;4983295;28;45788;-76
2022/12/17 23:52:30;;;;;;;;;53.00;45.33;;;;;2.32;84.54;100180.44;4987426;28;45516;-76
2022/12/17 23:54:55;;;;;;;;;61.33;47.67;;;;;2.32;84.37;100188.25;4990475;28;45720;-76
2022/12/17 23:57:21;;;;;;;;;59.00;47.00;;;;;2.33;84.39;100183.91;4989045;28;45504;-76
2022/12/17 23:59:46;;;;;;;;;56.33;45.33;;;;;2.34;84.47;100190.88;4986153;28;45498;-76
